sensor_id;sensor_type;location;lat;lon;timestamp;P1;durP1;ratioP1;P2;durP2;ratioP2
55328;SDS011;41205;44.264;19.884;2023-09-30T00:01:08;11.18;;;6.30;;
55328;SDS011;41205;44.264;19.884;2023-09-30T00:03:35;10.60;;;7.38;;
55328;SDS011;41205;44.264;19.884;2023-09-30T00:06:01;11.55;;;6.13;;
55328;SDS011;41205;44.264;19.884;2023-09-30T00:08:27;10.40;;;6.82;;
55328;SDS011;41205;44.264;19.884;2023-09-30T00:10:52;16.85;;;7.00;;
55328;SDS011;41205;44.264;19.884;2023-09-30T00:13:19;14.23;;;6.70;;
55328;SDS011;41205;44.264;19.884;2023-09-30T00:15:45;10.80;;;6.65;;
55328;SDS011;41205;44.264;19.884;2023-09-30T00:18:12;12.15;;;6.38;;
55328;SDS011;41205;44.264;19.884;2023-09-30T00:20:38;9.43;;;6.07;;
55328;SDS011;41205;44.264;19.884;2023-09-30T00:23:04;10.68;;;6.07;;
55328;SDS011;41205;44.264;19.884;2023-09-30T00:25:31;9.43;;;5.72;;
55328;SDS011;41205;44.264;19.884;2023-09-30T00:27:59;9.10;;;5.95;;
55328;SDS011;41205;44.264;19.884;2023-09-30T00:30:25;8.77;;;5.82;;
55328;SDS011;41205;44.264;19.884;2023-09-30T00:32:51;7.57;;;5.95;;
55328;SDS011;41205;44.264;19.884;2023-09-30T00:35:17;8.90;;;6.50;;
55328;SDS011;41205;44.264;19.884;2023-09-30T00:37:42;9.98;;;6.18;;
55328;SDS011;41205;44.264;19.884;2023-09-30T00:40:09;10.00;;;6.28;;
55328;SDS011;41205;44.264;19.884;2023-09-30T00:42:38;10.95;;;6.07;;
55328;SDS011;41205;44.264;19.884;2023-09-30T00:45:05;11.38;;;6.68;;
55328;SDS011;41205;44.264;19.884;2023-09-30T00:47:34;11.30;;;6.55;;
55328;SDS011;41205;44.264;19.884;2023-09-30T00:50:01;11.90;;;6.63;;
55328;SDS011;41205;44.264;19.884;2023-09-30T00:52:29;12.95;;;6.50;;
55328;SDS011;41205;44.264;19.884;2023-09-30T00:54:56;7.53;;;5.88;;
55328;SDS011;41205;44.264;19.884;2023-09-30T00:57:23;10.55;;;6.47;;
55328;SDS011;41205;44.264;19.884;2023-09-30T00:59:50;8.88;;;6.32;;
55328;SDS011;41205;44.264;19.884;2023-09-30T01:02:19;10.15;;;6.57;;
55328;SDS011;41205;44.264;19.884;2023-09-30T01:04:47;12.35;;;6.53;;
55328;SDS011;41205;44.264;19.884;2023-09-30T01:07:16;13.13;;;6.30;;
55328;SDS011;41205;44.264;19.884;2023-09-30T01:09:42;11.40;;;5.85;;
55328;SDS011;41205;44.264;19.884;2023-09-30T01:12:08;15.57;;;7.28;;
55328;SDS011;41205;44.264;19.884;2023-09-30T01:14:34;10.55;;;6.47;;
55328;SDS011;41205;44.264;19.884;2023-09-30T01:17:01;9.93;;;5.68;;
55328;SDS011;41205;44.264;19.884;2023-09-30T01:19:26;8.65;;;5.82;;
55328;SDS011;41205;44.264;19.884;2023-09-30T01:21:53;8.38;;;6.00;;
55328;SDS011;41205;44.264;19.884;2023-09-30T01:24:21;10.90;;;6.28;;
55328;SDS011;41205;44.264;19.884;2023-09-30T01:26:47;10.07;;;6.32;;
55328;SDS011;41205;44.264;19.884;2023-09-30T01:29:13;12.85;;;6.13;;
55328;SDS011;41205;44.264;19.884;2023-09-30T01:31:39;7.18;;;5.75;;
55328;SDS011;41205;44.264;19.884;2023-09-30T01:34:05;8.38;;;5.53;;
55328;SDS011;41205;44.264;19.884;2023-09-30T01:36:31;8.85;;;5.40;;
55328;SDS011;41205;44.264;19.884;2023-09-30T01:38:57;8.25;;;5.78;;
55328;SDS011;41205;44.264;19.884;2023-09-30T01:41:23;8.35;;;5.10;;
55328;SDS011;41205;44.264;19.884;2023-09-30T01:43:49;11.98;;;5.43;;
55328;SDS011;41205;44.264;19.884;2023-09-30T01:46:14;8.40;;;5.28;;
55328;SDS011;41205;44.264;19.884;2023-09-30T01:48:40;7.47;;;5.63;;
55328;SDS011;41205;44.264;19.884;2023-09-30T01:51:06;15.02;;;7.03;;
55328;SDS011;41205;44.264;19.884;2023-09-30T01:53:32;9.65;;;6.07;;
55328;SDS011;41205;44.264;19.884;2023-09-30T01:55:58;8.23;;;5.57;;
55328;SDS011;41205;44.264;19.884;2023-09-30T01:58:24;9.07;;;6.15;;
55328;SDS011;41205;44.264;19.884;2023-09-30T02:00:53;8.98;;;6.15;;
55328;SDS011;41205;44.264;19.884;2023-09-30T02:03:19;8.10;;;5.78;;
55328;SDS011;41205;44.264;19.884;2023-09-30T02:05:45;10.43;;;6.20;;
55328;SDS011;41205;44.264;19.884;2023-09-30T02:08:11;10.02;;;7.15;;
55328;SDS011;41205;44.264;19.884;2023-09-30T02:10:38;9.10;;;6.35;;
55328;SDS011;41205;44.264;19.884;2023-09-30T02:13:05;8.07;;;5.70;;
55328;SDS011;41205;44.264;19.884;2023-09-30T02:15:32;10.07;;;6.18;;
55328;SDS011;41205;44.264;19.884;2023-09-30T02:17:58;12.82;;;6.28;;
55328;SDS011;41205;44.264;19.884;2023-09-30T02:20:25;11.02;;;6.78;;
55328;SDS011;41205;44.264;19.884;2023-09-30T02:22:54;10.43;;;7.30;;
55328;SDS011;41205;44.264;19.884;2023-09-30T02:25:22;8.45;;;5.88;;
55328;SDS011;41205;44.264;19.884;2023-09-30T02:27:49;8.15;;;6.25;;
55328;SDS011;41205;44.264;19.884;2023-09-30T02:30:15;11.95;;;6.28;;
55328;SDS011;41205;44.264;19.884;2023-09-30T02:32:41;15.90;;;6.97;;
55328;SDS011;41205;44.264;19.884;2023-09-30T02:35:07;8.18;;;6.07;;
55328;SDS011;41205;44.264;19.884;2023-09-30T02:37:36;8.32;;;6.15;;
55328;SDS011;41205;44.264;19.884;2023-09-30T02:40:03;10.90;;;5.90;;
55328;SDS011;41205;44.264;19.884;2023-09-30T02:42:35;12.77;;;6.43;;
55328;SDS011;41205;44.264;19.884;2023-09-30T02:45:04;11.23;;;6.10;;
55328;SDS011;41205;44.264;19.884;2023-09-30T02:47:31;9.80;;;5.97;;
55328;SDS011;41205;44.264;19.884;2023-09-30T02:49:57;10.50;;;6.43;;
55328;SDS011;41205;44.264;19.884;2023-09-30T02:52:24;9.75;;;6.00;;
55328;SDS011;41205;44.264;19.884;2023-09-30T02:54:50;9.50;;;5.88;;
55328;SDS011;41205;44.264;19.884;2023-09-30T02:57:16;11.85;;;6.10;;
55328;SDS011;41205;44.264;19.884;2023-09-30T02:59:43;9.13;;;5.63;;
55328;SDS011;41205;44.264;19.884;2023-09-30T03:02:09;8.30;;;5.80;;
55328;SDS011;41205;44.264;19.884;2023-09-30T03:04:36;7.13;;;6.00;;
55328;SDS011;41205;44.264;19.884;2023-09-30T03:07:02;11.88;;;6.38;;
55328;SDS011;41205;44.264;19.884;2023-09-30T03:09:28;8.77;;;6.45;;
55328;SDS011;41205;44.264;19.884;2023-09-30T03:11:54;6.40;;;5.53;;
55328;SDS011;41205;44.264;19.884;2023-09-30T03:14:24;13.15;;;6.45;;
55328;SDS011;41205;44.264;19.884;2023-09-30T03:16:50;7.47;;;5.65;;
55328;SDS011;41205;44.264;19.884;2023-09-30T03:19:17;9.20;;;6.93;;
55328;SDS011;41205;44.264;19.884;2023-09-30T03:21:42;8.10;;;5.80;;
55328;SDS011;41205;44.264;19.884;2023-09-30T03:24:08;8.65;;;6.40;;
55328;SDS011;41205;44.264;19.884;2023-09-30T03:26:35;9.68;;;6.32;;
55328;SDS011;41205;44.264;19.884;2023-09-30T03:29:01;8.70;;;5.63;;
55328;SDS011;41205;44.264;19.884;2023-09-30T03:31:27;8.48;;;6.63;;
55328;SDS011;41205;44.264;19.884;2023-09-30T03:33:52;10.52;;;7.30;;
55328;SDS011;41205;44.264;19.884;2023-09-30T03:36:21;8.52;;;6.45;;
55328;SDS011;41205;44.264;19.884;2023-09-30T03:38:49;9.82;;;6.35;;
55328;SDS011;41205;44.264;19.884;2023-09-30T03:41:19;10.40;;;7.05;;
55328;SDS011;41205;44.264;19.884;2023-09-30T03:43:45;11.15;;;7.43;;
55328;SDS011;41205;44.264;19.884;2023-09-30T03:46:12;8.85;;;5.63;;
55328;SDS011;41205;44.264;19.884;2023-09-30T03:48:38;14.10;;;7.15;;
55328;SDS011;41205;44.264;19.884;2023-09-30T03:51:14;9.23;;;6.07;;
55328;SDS011;41205;44.264;19.884;2023-09-30T03:53:43;10.85;;;6.90;;
55328;SDS011;41205;44.264;19.884;2023-09-30T03:56:10;7.03;;;5.43;;
55328;SDS011;41205;44.264;19.884;2023-09-30T03:58:40;9.02;;;6.78;;
55328;SDS011;41205;44.264;19.884;2023-09-30T04:01:06;10.68;;;6.90;;
55328;SDS011;41205;44.264;19.884;2023-09-30T04:03:33;11.45;;;7.03;;
55328;SDS011;41205;44.264;19.884;2023-09-30T04:09:21;9.68;;;6.72;;
55328;SDS011;41205;44.264;19.884;2023-09-30T04:11:47;13.07;;;6.10;;
55328;SDS011;41205;44.264;19.884;2023-09-30T04:14:13;10.13;;;6.00;;
55328;SDS011;41205;44.264;19.884;2023-09-30T04:16:38;13.13;;;5.85;;
55328;SDS011;41205;44.264;19.884;2023-09-30T04:19:04;13.43;;;6.55;;
55328;SDS011;41205;44.264;19.884;2023-09-30T04:24:54;10.07;;;6.82;;
55328;SDS011;41205;44.264;19.884;2023-09-30T04:27:20;10.05;;;6.60;;
55328;SDS011;41205;44.264;19.884;2023-09-30T04:29:46;12.05;;;6.63;;
55328;SDS011;41205;44.264;19.884;2023-09-30T04:32:13;9.52;;;5.93;;
55328;SDS011;41205;44.264;19.884;2023-09-30T04:34:38;9.15;;;6.35;;
55328;SDS011;41205;44.264;19.884;2023-09-30T04:40:26;9.18;;;6.05;;
55328;SDS011;41205;44.264;19.884;2023-09-30T04:42:52;9.98;;;6.35;;
55328;SDS011;41205;44.264;19.884;2023-09-30T04:45:20;11.43;;;6.97;;
55328;SDS011;41205;44.264;19.884;2023-09-30T04:47:46;10.38;;;7.20;;
55328;SDS011;41205;44.264;19.884;2023-09-30T04:50:14;8.13;;;6.60;;
55328;SDS011;41205;44.264;19.884;2023-09-30T04:56:02;9.13;;;5.95;;
55328;SDS011;41205;44.264;19.884;2023-09-30T04:58:28;9.32;;;5.93;;
55328;SDS011;41205;44.264;19.884;2023-09-30T05:00:54;10.85;;;6.07;;
55328;SDS011;41205;44.264;19.884;2023-09-30T05:03:20;9.18;;;6.53;;
55328;SDS011;41205;44.264;19.884;2023-09-30T05:05:46;7.47;;;6.03;;
55328;SDS011;41205;44.264;19.884;2023-09-30T05:08:11;11.52;;;7.43;;
55328;SDS011;41205;44.264;19.884;2023-09-30T05:10:39;11.00;;;6.55;;
55328;SDS011;41205;44.264;19.884;2023-09-30T05:13:04;13.93;;;7.28;;
55328;SDS011;41205;44.264;19.884;2023-09-30T05:15:30;13.07;;;8.20;;
55328;SDS011;41205;44.264;19.884;2023-09-30T05:17:57;10.07;;;7.28;;
55328;SDS011;41205;44.264;19.884;2023-09-30T05:20:23;11.32;;;6.70;;
55328;SDS011;41205;44.264;19.884;2023-09-30T05:22:49;11.02;;;7.53;;
55328;SDS011;41205;44.264;19.884;2023-09-30T05:25:15;29.80;;;9.43;;
55328;SDS011;41205;44.264;19.884;2023-09-30T05:27:42;10.95;;;6.30;;
55328;SDS011;41205;44.264;19.884;2023-09-30T05:30:08;11.40;;;7.13;;
55328;SDS011;41205;44.264;19.884;2023-09-30T05:32:36;9.32;;;6.50;;
55328;SDS011;41205;44.264;19.884;2023-09-30T05:35:04;10.80;;;6.88;;
55328;SDS011;41205;44.264;19.884;2023-09-30T05:37:31;10.63;;;7.00;;
55328;SDS011;41205;44.264;19.884;2023-09-30T05:39:57;11.95;;;7.22;;
55328;SDS011;41205;44.264;19.884;2023-09-30T05:42:22;9.98;;;6.35;;
55328;SDS011;41205;44.264;19.884;2023-09-30T05:44:48;10.38;;;6.85;;
55328;SDS011;41205;44.264;19.884;2023-09-30T05:47:14;13.55;;;7.90;;
55328;SDS011;41205;44.264;19.884;2023-09-30T05:49:43;12.50;;;7.35;;
55328;SDS011;41205;44.264;19.884;2023-09-30T05:52:08;11.48;;;6.40;;
55328;SDS011;41205;44.264;19.884;2023-09-30T05:54:34;9.10;;;6.10;;
55328;SDS011;41205;44.264;19.884;2023-09-30T05:57:00;13.98;;;6.60;;
55328;SDS011;41205;44.264;19.884;2023-09-30T05:59:25;16.70;;;6.65;;
55328;SDS011;41205;44.264;19.884;2023-09-30T06:01:53;11.05;;;6.97;;
55328;SDS011;41205;44.264;19.884;2023-09-30T06:04:18;13.68;;;6.85;;
55328;SDS011;41205;44.264;19.884;2023-09-30T06:06:44;8.23;;;7.35;;
55328;SDS011;41205;44.264;19.884;2023-09-30T06:09:10;10.20;;;7.30;;
55328;SDS011;41205;44.264;19.884;2023-09-30T06:11:36;7.18;;;6.47;;
55328;SDS011;41205;44.264;19.884;2023-09-30T06:14:02;9.25;;;6.45;;
55328;SDS011;41205;44.264;19.884;2023-09-30T06:16:31;9.20;;;6.18;;
55328;SDS011;41205;44.264;19.884;2023-09-30T06:18:57;10.88;;;7.68;;
55328;SDS011;41205;44.264;19.884;2023-09-30T06:21:24;15.30;;;9.18;;
55328;SDS011;41205;44.264;19.884;2023-09-30T06:23:54;9.25;;;7.55;;
55328;SDS011;41205;44.264;19.884;2023-09-30T06:26:20;11.00;;;7.80;;
55328;SDS011;41205;44.264;19.884;2023-09-30T06:28:46;9.32;;;8.48;;
55328;SDS011;41205;44.264;19.884;2023-09-30T06:31:13;12.50;;;10.02;;
55328;SDS011;41205;44.264;19.884;2023-09-30T06:33:40;10.13;;;8.07;;
55328;SDS011;41205;44.264;19.884;2023-09-30T06:36:13;10.05;;;8.93;;
55328;SDS011;41205;44.264;19.884;2023-09-30T06:38:39;13.07;;;8.57;;
55328;SDS011;41205;44.264;19.884;2023-09-30T06:41:07;10.40;;;8.60;;
55328;SDS011;41205;44.264;19.884;2023-09-30T06:43:33;9.18;;;8.20;;
55328;SDS011;41205;44.264;19.884;2023-09-30T06:46:06;10.98;;;8.98;;
55328;SDS011;41205;44.264;19.884;2023-09-30T06:48:36;8.68;;;7.85;;
55328;SDS011;41205;44.264;19.884;2023-09-30T06:51:02;8.50;;;7.70;;
55328;SDS011;41205;44.264;19.884;2023-09-30T06:53:28;8.85;;;8.00;;
55328;SDS011;41205;44.264;19.884;2023-09-30T06:55:54;9.38;;;8.43;;
55328;SDS011;41205;44.264;19.884;2023-09-30T06:58:20;9.48;;;8.65;;
55328;SDS011;41205;44.264;19.884;2023-09-30T07:00:52;10.13;;;9.23;;
55328;SDS011;41205;44.264;19.884;2023-09-30T07:03:21;13.32;;;9.65;;
55328;SDS011;41205;44.264;19.884;2023-09-30T07:05:47;10.68;;;9.57;;
55328;SDS011;41205;44.264;19.884;2023-09-30T07:08:17;13.10;;;11.15;;
55328;SDS011;41205;44.264;19.884;2023-09-30T07:10:43;12.93;;;11.73;;
55328;SDS011;41205;44.264;19.884;2023-09-30T07:13:11;13.40;;;12.10;;
55328;SDS011;41205;44.264;19.884;2023-09-30T07:15:37;13.43;;;12.07;;
55328;SDS011;41205;44.264;19.884;2023-09-30T07:18:03;13.65;;;12.27;;
55328;SDS011;41205;44.264;19.884;2023-09-30T07:20:28;19.63;;;12.48;;
55328;SDS011;41205;44.264;19.884;2023-09-30T07:22:58;12.60;;;10.27;;
55328;SDS011;41205;44.264;19.884;2023-09-30T07:25:24;14.45;;;10.55;;
55328;SDS011;41205;44.264;19.884;2023-09-30T07:27:50;11.70;;;10.68;;
55328;SDS011;41205;44.264;19.884;2023-09-30T07:30:17;14.07;;;11.80;;
55328;SDS011;41205;44.264;19.884;2023-09-30T07:32:43;14.40;;;12.90;;
55328;SDS011;41205;44.264;19.884;2023-09-30T07:35:09;14.35;;;12.85;;
55328;SDS011;41205;44.264;19.884;2023-09-30T07:37:39;18.33;;;12.65;;
55328;SDS011;41205;44.264;19.884;2023-09-30T07:40:05;15.23;;;13.90;;
55328;SDS011;41205;44.264;19.884;2023-09-30T07:42:31;21.40;;;19.50;;
55328;SDS011;41205;44.264;19.884;2023-09-30T07:44:58;16.52;;;14.48;;
55328;SDS011;41205;44.264;19.884;2023-09-30T07:47:24;16.15;;;14.68;;
55328;SDS011;41205;44.264;19.884;2023-09-30T07:49:49;16.27;;;14.57;;
55328;SDS011;41205;44.264;19.884;2023-09-30T07:52:15;16.92;;;15.25;;
55328;SDS011;41205;44.264;19.884;2023-09-30T07:54:41;16.27;;;14.77;;
55328;SDS011;41205;44.264;19.884;2023-09-30T07:57:07;15.07;;;13.77;;
55328;SDS011;41205;44.264;19.884;2023-09-30T07:59:32;19.20;;;13.00;;
55328;SDS011;41205;44.264;19.884;2023-09-30T08:01:58;16.20;;;12.82;;
55328;SDS011;41205;44.264;19.884;2023-09-30T08:04:24;13.88;;;12.48;;
55328;SDS011;41205;44.264;19.884;2023-09-30T08:06:50;19.80;;;13.20;;
55328;SDS011;41205;44.264;19.884;2023-09-30T08:09:16;12.25;;;10.95;;
55328;SDS011;41205;44.264;19.884;2023-09-30T08:11:43;14.25;;;11.88;;
55328;SDS011;41205;44.264;19.884;2023-09-30T08:14:09;13.43;;;12.02;;
55328;SDS011;41205;44.264;19.884;2023-09-30T08:16:35;14.77;;;10.85;;
55328;SDS011;41205;44.264;19.884;2023-09-30T08:19:02;15.40;;;10.88;;
55328;SDS011;41205;44.264;19.884;2023-09-30T08:21:28;13.02;;;9.63;;
55328;SDS011;41205;44.264;19.884;2023-09-30T08:23:55;12.00;;;10.50;;
55328;SDS011;41205;44.264;19.884;2023-09-30T08:26:22;10.52;;;9.48;;
55328;SDS011;41205;44.264;19.884;2023-09-30T08:28:47;15.30;;;10.68;;
55328;SDS011;41205;44.264;19.884;2023-09-30T08:31:13;11.35;;;10.45;;
55328;SDS011;41205;44.264;19.884;2023-09-30T08:33:39;11.75;;;10.55;;
55328;SDS011;41205;44.264;19.884;2023-09-30T08:36:08;14.85;;;10.18;;
55328;SDS011;41205;44.264;19.884;2023-09-30T08:38:35;11.02;;;9.88;;
55328;SDS011;41205;44.264;19.884;2023-09-30T08:41:01;12.65;;;10.45;;
55328;SDS011;41205;44.264;19.884;2023-09-30T08:43:28;11.23;;;10.02;;
55328;SDS011;41205;44.264;19.884;2023-09-30T08:45:56;14.88;;;11.70;;
55328;SDS011;41205;44.264;19.884;2023-09-30T08:48:23;11.48;;;10.38;;
55328;SDS011;41205;44.264;19.884;2023-09-30T08:50:52;11.57;;;10.07;;
55328;SDS011;41205;44.264;19.884;2023-09-30T08:53:19;11.10;;;10.10;;
55328;SDS011;41205;44.264;19.884;2023-09-30T08:55:46;58.78;;;17.50;;
55328;SDS011;41205;44.264;19.884;2023-09-30T08:58:13;14.13;;;10.63;;
55328;SDS011;41205;44.264;19.884;2023-09-30T09:00:39;10.40;;;8.52;;
55328;SDS011;41205;44.264;19.884;2023-09-30T09:03:06;12.65;;;8.95;;
55328;SDS011;41205;44.264;19.884;2023-09-30T09:05:32;12.80;;;8.23;;
55328;SDS011;41205;44.264;19.884;2023-09-30T09:07:58;12.52;;;8.63;;
55328;SDS011;41205;44.264;19.884;2023-09-30T09:10:24;11.30;;;9.07;;
55328;SDS011;41205;44.264;19.884;2023-09-30T09:12:56;14.52;;;10.23;;
55328;SDS011;41205;44.264;19.884;2023-09-30T09:15:27;11.90;;;8.93;;
55328;SDS011;41205;44.264;19.884;2023-09-30T09:17:56;17.30;;;11.13;;
55328;SDS011;41205;44.264;19.884;2023-09-30T09:20:22;13.80;;;9.93;;
55328;SDS011;41205;44.264;19.884;2023-09-30T09:22:51;13.90;;;9.48;;
55328;SDS011;41205;44.264;19.884;2023-09-30T09:25:19;10.77;;;9.30;;
55328;SDS011;41205;44.264;19.884;2023-09-30T09:27:48;12.07;;;9.75;;
55328;SDS011;41205;44.264;19.884;2023-09-30T09:35:20;19.88;;;12.02;;
55328;SDS011;41205;44.264;19.884;2023-09-30T09:37:56;14.63;;;9.85;;
55328;SDS011;41205;44.264;19.884;2023-09-30T09:40:24;12.30;;;11.02;;
55328;SDS011;41205;44.264;19.884;2023-09-30T09:42:51;12.40;;;10.30;;
55328;SDS011;41205;44.264;19.884;2023-09-30T09:45:20;14.20;;;10.30;;
55328;SDS011;41205;44.264;19.884;2023-09-30T09:47:48;13.50;;;9.77;;
55328;SDS011;41205;44.264;19.884;2023-09-30T09:50:14;12.85;;;9.60;;
55328;SDS011;41205;44.264;19.884;2023-09-30T09:52:40;17.67;;;10.80;;
55328;SDS011;41205;44.264;19.884;2023-09-30T09:55:10;11.75;;;9.50;;
55328;SDS011;41205;44.264;19.884;2023-09-30T09:57:37;12.68;;;10.10;;
55328;SDS011;41205;44.264;19.884;2023-09-30T10:00:03;19.25;;;10.52;;
55328;SDS011;41205;44.264;19.884;2023-09-30T10:02:39;13.55;;;10.40;;
55328;SDS011;41205;44.264;19.884;2023-09-30T10:05:06;12.90;;;9.85;;
55328;SDS011;41205;44.264;19.884;2023-09-30T10:07:35;16.35;;;10.80;;
55328;SDS011;41205;44.264;19.884;2023-09-30T10:10:05;15.02;;;10.07;;
55328;SDS011;41205;44.264;19.884;2023-09-30T10:12:36;14.15;;;9.52;;
55328;SDS011;41205;44.264;19.884;2023-09-30T10:18:23;21.70;;;10.95;;
55328;SDS011;41205;44.264;19.884;2023-09-30T10:20:42;17.95;;;8.70;;
55328;SDS011;41205;44.264;19.884;2023-09-30T10:25:55;12.10;;;8.90;;
55328;SDS011;41205;44.264;19.884;2023-09-30T10:31:21;11.25;;;8.23;;
55328;SDS011;41205;44.264;19.884;2023-09-30T10:36:28;14.05;;;9.38;;
55328;SDS011;41205;44.264;19.884;2023-09-30T10:38:55;9.23;;;6.93;;
55328;SDS011;41205;44.264;19.884;2023-09-30T10:46:50;15.82;;;9.43;;
55328;SDS011;41205;44.264;19.884;2023-09-30T10:51:52;17.77;;;8.95;;
55328;SDS011;41205;44.264;19.884;2023-09-30T10:56:48;12.88;;;7.43;;
55328;SDS011;41205;44.264;19.884;2023-09-30T10:59:24;11.88;;;7.65;;
55328;SDS011;41205;44.264;19.884;2023-09-30T11:01:51;12.23;;;7.45;;
55328;SDS011;41205;44.264;19.884;2023-09-30T11:04:18;14.27;;;10.35;;
55328;SDS011;41205;44.264;19.884;2023-09-30T11:06:44;11.13;;;8.10;;
55328;SDS011;41205;44.264;19.884;2023-09-30T11:09:18;10.50;;;7.40;;
55328;SDS011;41205;44.264;19.884;2023-09-30T11:11:45;10.32;;;5.88;;
55328;SDS011;41205;44.264;19.884;2023-09-30T11:14:22;10.40;;;7.70;;
55328;SDS011;41205;44.264;19.884;2023-09-30T11:16:49;13.77;;;8.00;;
55328;SDS011;41205;44.264;19.884;2023-09-30T11:19:16;11.95;;;7.15;;
55328;SDS011;41205;44.264;19.884;2023-09-30T11:21:42;10.27;;;8.43;;
55328;SDS011;41205;44.264;19.884;2023-09-30T11:24:10;11.88;;;9.10;;
55328;SDS011;41205;44.264;19.884;2023-09-30T11:26:37;11.02;;;8.32;;
55328;SDS011;41205;44.264;19.884;2023-09-30T11:29:06;13.40;;;7.75;;
55328;SDS011;41205;44.264;19.884;2023-09-30T11:31:36;15.75;;;7.43;;
55328;SDS011;41205;44.264;19.884;2023-09-30T11:34:03;11.80;;;9.40;;
55328;SDS011;41205;44.264;19.884;2023-09-30T11:36:33;11.50;;;8.10;;
55328;SDS011;41205;44.264;19.884;2023-09-30T11:39:00;9.45;;;6.38;;
55328;SDS011;41205;44.264;19.884;2023-09-30T11:41:38;7.68;;;6.78;;
55328;SDS011;41205;44.264;19.884;2023-09-30T11:46:33;10.07;;;6.70;;
55328;SDS011;41205;44.264;19.884;2023-09-30T11:51:52;15.63;;;11.70;;
55328;SDS011;41205;44.264;19.884;2023-09-30T11:54:18;11.32;;;8.57;;
55328;SDS011;41205;44.264;19.884;2023-09-30T11:56:44;7.88;;;6.40;;
55328;SDS011;41205;44.264;19.884;2023-09-30T11:59:12;8.65;;;7.13;;
55328;SDS011;41205;44.264;19.884;2023-09-30T12:01:38;11.43;;;7.40;;
55328;SDS011;41205;44.264;19.884;2023-09-30T12:04:04;9.98;;;6.13;;
55328;SDS011;41205;44.264;19.884;2023-09-30T12:06:30;11.13;;;6.80;;
55328;SDS011;41205;44.264;19.884;2023-09-30T12:08:56;13.52;;;9.27;;
55328;SDS011;41205;44.264;19.884;2023-09-30T12:11:22;11.77;;;8.55;;
55328;SDS011;41205;44.264;19.884;2023-09-30T12:13:49;11.30;;;8.15;;
55328;SDS011;41205;44.264;19.884;2023-09-30T12:16:15;11.88;;;7.72;;
55328;SDS011;41205;44.264;19.884;2023-09-30T12:18:41;11.48;;;9.70;;
55328;SDS011;41205;44.264;19.884;2023-09-30T12:21:09;12.57;;;9.93;;
55328;SDS011;41205;44.264;19.884;2023-09-30T12:23:38;15.95;;;9.80;;
55328;SDS011;41205;44.264;19.884;2023-09-30T12:26:05;11.13;;;9.43;;
55328;SDS011;41205;44.264;19.884;2023-09-30T12:28:31;9.98;;;6.78;;
55328;SDS011;41205;44.264;19.884;2023-09-30T12:30:58;10.02;;;8.20;;
55328;SDS011;41205;44.264;19.884;2023-09-30T12:33:28;13.05;;;7.75;;
55328;SDS011;41205;44.264;19.884;2023-09-30T12:35:55;9.18;;;6.75;;
55328;SDS011;41205;44.264;19.884;2023-09-30T12:38:22;8.98;;;7.43;;
55328;SDS011;41205;44.264;19.884;2023-09-30T12:40:52;15.60;;;12.38;;
55328;SDS011;41205;44.264;19.884;2023-09-30T12:43:19;12.43;;;7.32;;
55328;SDS011;41205;44.264;19.884;2023-09-30T12:45:48;11.77;;;8.63;;
55328;SDS011;41205;44.264;19.884;2023-09-30T12:48:16;8.02;;;5.55;;
55328;SDS011;41205;44.264;19.884;2023-09-30T12:50:42;6.60;;;5.93;;
55328;SDS011;41205;44.264;19.884;2023-09-30T12:53:09;9.77;;;5.85;;
55328;SDS011;41205;44.264;19.884;2023-09-30T12:55:35;9.95;;;5.72;;
55328;SDS011;41205;44.264;19.884;2023-09-30T12:58:01;10.60;;;6.53;;
55328;SDS011;41205;44.264;19.884;2023-09-30T13:00:27;7.70;;;5.45;;
55328;SDS011;41205;44.264;19.884;2023-09-30T13:02:55;7.75;;;6.30;;
55328;SDS011;41205;44.264;19.884;2023-09-30T13:05:22;11.43;;;8.52;;
55328;SDS011;41205;44.264;19.884;2023-09-30T13:07:48;12.27;;;6.38;;
55328;SDS011;41205;44.264;19.884;2023-09-30T13:10:14;10.35;;;8.18;;
55328;SDS011;41205;44.264;19.884;2023-09-30T13:12:40;15.52;;;8.35;;
55328;SDS011;41205;44.264;19.884;2023-09-30T13:15:06;11.15;;;7.85;;
55328;SDS011;41205;44.264;19.884;2023-09-30T13:17:33;8.88;;;6.75;;
55328;SDS011;41205;44.264;19.884;2023-09-30T13:19:59;12.20;;;7.20;;
55328;SDS011;41205;44.264;19.884;2023-09-30T13:22:30;9.40;;;6.07;;
55328;SDS011;41205;44.264;19.884;2023-09-30T13:24:57;12.30;;;6.60;;
55328;SDS011;41205;44.264;19.884;2023-09-30T13:27:25;12.15;;;6.28;;
55328;SDS011;41205;44.264;19.884;2023-09-30T13:29:51;10.20;;;6.63;;
55328;SDS011;41205;44.264;19.884;2023-09-30T13:32:19;11.30;;;6.07;;
55328;SDS011;41205;44.264;19.884;2023-09-30T13:34:45;9.00;;;6.85;;
55328;SDS011;41205;44.264;19.884;2023-09-30T13:37:11;7.53;;;6.22;;
55328;SDS011;41205;44.264;19.884;2023-09-30T13:39:37;8.98;;;6.82;;
55328;SDS011;41205;44.264;19.884;2023-09-30T13:42:03;8.15;;;6.25;;
55328;SDS011;41205;44.264;19.884;2023-09-30T13:44:29;13.18;;;6.97;;
55328;SDS011;41205;44.264;19.884;2023-09-30T13:46:54;7.68;;;6.00;;
55328;SDS011;41205;44.264;19.884;2023-09-30T13:49:20;9.38;;;6.38;;
55328;SDS011;41205;44.264;19.884;2023-09-30T13:51:46;11.70;;;6.57;;
55328;SDS011;41205;44.264;19.884;2023-09-30T13:54:12;7.60;;;6.35;;
55328;SDS011;41205;44.264;19.884;2023-09-30T13:56:39;12.90;;;6.43;;
55328;SDS011;41205;44.264;19.884;2023-09-30T13:59:05;7.45;;;5.80;;
55328;SDS011;41205;44.264;19.884;2023-09-30T14:01:31;6.95;;;6.25;;
55328;SDS011;41205;44.264;19.884;2023-09-30T14:03:57;8.85;;;4.80;;
55328;SDS011;41205;44.264;19.884;2023-09-30T14:06:23;9.18;;;5.82;;
55328;SDS011;41205;44.264;19.884;2023-09-30T14:08:49;8.68;;;6.32;;
55328;SDS011;41205;44.264;19.884;2023-09-30T14:11:15;11.63;;;6.40;;
55328;SDS011;41205;44.264;19.884;2023-09-30T14:13:41;9.93;;;5.60;;
55328;SDS011;41205;44.264;19.884;2023-09-30T14:16:07;11.05;;;5.95;;
55328;SDS011;41205;44.264;19.884;2023-09-30T14:18:33;8.27;;;6.20;;
55328;SDS011;41205;44.264;19.884;2023-09-30T14:21:01;9.88;;;6.45;;
55328;SDS011;41205;44.264;19.884;2023-09-30T14:23:27;8.02;;;5.88;;
55328;SDS011;41205;44.264;19.884;2023-09-30T14:25:54;9.20;;;6.30;;
55328;SDS011;41205;44.264;19.884;2023-09-30T14:28:24;14.07;;;6.63;;
55328;SDS011;41205;44.264;19.884;2023-09-30T14:30:50;10.60;;;7.50;;
55328;SDS011;41205;44.264;19.884;2023-09-30T14:33:16;8.75;;;6.18;;
55328;SDS011;41205;44.264;19.884;2023-09-30T14:35:44;8.15;;;6.25;;
55328;SDS011;41205;44.264;19.884;2023-09-30T14:38:10;8.88;;;6.28;;
55328;SDS011;41205;44.264;19.884;2023-09-30T14:40:37;8.60;;;6.60;;
55328;SDS011;41205;44.264;19.884;2023-09-30T14:43:07;11.05;;;7.00;;
55328;SDS011;41205;44.264;19.884;2023-09-30T14:45:38;8.95;;;6.88;;
55328;SDS011;41205;44.264;19.884;2023-09-30T14:48:04;8.23;;;6.30;;
55328;SDS011;41205;44.264;19.884;2023-09-30T14:50:36;9.68;;;6.68;;
55328;SDS011;41205;44.264;19.884;2023-09-30T14:53:02;8.05;;;6.47;;
55328;SDS011;41205;44.264;19.884;2023-09-30T14:55:31;9.57;;;6.60;;
55328;SDS011;41205;44.264;19.884;2023-09-30T14:57:57;8.68;;;5.68;;
55328;SDS011;41205;44.264;19.884;2023-09-30T15:00:23;13.43;;;6.93;;
55328;SDS011;41205;44.264;19.884;2023-09-30T15:02:50;7.65;;;6.47;;
55328;SDS011;41205;44.264;19.884;2023-09-30T15:05:16;11.75;;;6.32;;
55328;SDS011;41205;44.264;19.884;2023-09-30T15:07:42;10.40;;;6.70;;